createdAt,value
2018-12-29T00:01:41.859Z,36.60
2018-12-29T00:04:08.064Z,36.50
2018-12-29T00:06:35.014Z,36.50
2018-12-29T00:09:01.235Z,36.50
2018-12-29T00:11:27.435Z,36.50
2018-12-29T00:13:53.616Z,36.60
2018-12-29T00:16:19.813Z,36.60
2018-12-29T00:18:45.998Z,36.70
2018-12-29T00:21:12.196Z,36.70
2018-12-29T00:23:38.367Z,36.70
2018-12-29T00:26:04.572Z,36.70
2018-12-29T00:28:31.554Z,36.70
2018-12-29T00:30:58.382Z,36.60
2018-12-29T00:33:24.573Z,36.50
2018-12-29T00:35:50.774Z,36.60
2018-12-29T00:38:16.970Z,36.70
2018-12-29T00:40:43.172Z,36.70
2018-12-29T00:43:10.152Z,37.40
2018-12-29T00:45:36.364Z,36.80
2018-12-29T00:48:02.548Z,37.00
2018-12-29T00:50:28.770Z,37.00
2018-12-29T00:52:57.095Z,37.20
2018-12-29T00:55:23.304Z,37.20
2018-12-29T00:57:49.520Z,37.30
2018-12-29T01:00:15.691Z,37.30
2018-12-29T01:02:41.894Z,37.30
2018-12-29T01:05:08.849Z,37.20
2018-12-29T01:07:35.097Z,37.20
2018-12-29T01:10:01.307Z,37.20
2018-12-29T01:12:27.543Z,37.20
2018-12-29T01:14:53.744Z,37.20
2018-12-29T01:17:20.956Z,37.20
2018-12-29T01:19:47.148Z,37.20
2018-12-29T01:22:13.349Z,37.30
2018-12-29T01:24:40.294Z,37.30
2018-12-29T01:27:06.483Z,37.60
2018-12-29T01:29:32.681Z,37.50
2018-12-29T01:31:58.900Z,37.60
2018-12-29T01:34:25.087Z,37.70
2018-12-29T01:36:51.259Z,37.60
2018-12-29T01:39:17.467Z,37.70
2018-12-29T01:41:43.640Z,37.70
2018-12-29T01:44:09.849Z,37.60
2018-12-29T01:46:36.048Z,37.70
2018-12-29T01:49:03.023Z,37.70
2018-12-29T01:51:29.214Z,37.70
2018-12-29T01:53:55.416Z,37.70
2018-12-29T01:56:21.604Z,37.70
2018-12-29T01:58:47.885Z,37.60
2018-12-29T02:01:14.098Z,37.60
2018-12-29T02:03:40.291Z,37.70
2018-12-29T02:06:07.233Z,37.70
2018-12-29T02:08:33.444Z,37.70
2018-12-29T02:10:59.618Z,37.70
2018-12-29T02:13:25.856Z,37.80
2018-12-29T02:15:52.043Z,37.90
2018-12-29T02:18:18.239Z,37.80
2018-12-29T02:20:45.199Z,37.90
2018-12-29T02:23:11.414Z,37.90
2018-12-29T02:25:37.608Z,37.80
2018-12-29T02:28:05.301Z,37.90
2018-12-29T02:30:32.259Z,37.80
2018-12-29T02:32:58.461Z,37.90
2018-12-29T02:35:24.656Z,38.00
2018-12-29T02:37:50.862Z,38.00
2018-12-29T02:40:18.009Z,38.00
2018-12-29T02:42:44.209Z,37.80
2018-12-29T02:45:10.455Z,37.90
2018-12-29T02:47:36.624Z,38.00
2018-12-29T02:50:02.998Z,38.00
2018-12-29T02:52:29.202Z,38.20
2018-12-29T02:54:55.397Z,38.30
2018-12-29T02:57:21.608Z,38.40
2018-12-29T02:59:47.841Z,38.40
2018-12-29T03:02:14.053Z,38.40
2018-12-29T03:04:40.268Z,38.40
2018-12-29T03:07:07.217Z,38.40
2018-12-29T03:09:33.417Z,38.40
2018-12-29T03:11:59.632Z,38.50
2018-12-29T03:14:25.828Z,38.60
2018-12-29T03:16:52.028Z,38.80
2018-12-29T03:19:18.204Z,38.90
2018-12-29T03:21:45.159Z,38.90
2018-12-29T03:24:11.343Z,38.90
2018-12-29T03:26:37.542Z,39.00
2018-12-29T03:29:04.484Z,39.00
2018-12-29T03:31:30.691Z,39.00
2018-12-29T03:33:56.868Z,38.90
2018-12-29T03:36:23.103Z,39.50
2018-12-29T03:38:49.311Z,38.80
2018-12-29T03:41:15.514Z,38.90
2018-12-29T03:43:42.473Z,38.80
2018-12-29T03:46:08.717Z,38.80
2018-12-29T03:48:34.925Z,38.80
2018-12-29T03:51:01.154Z,38.70
2018-12-29T03:53:27.327Z,38.70
2018-12-29T03:55:53.577Z,38.80
2018-12-29T03:58:20.546Z,38.60
2018-12-29T04:00:47.492Z,38.70
2018-12-29T04:03:13.704Z,38.60
2018-12-29T04:05:39.871Z,38.70
2018-12-29T04:08:06.199Z,38.80
2018-12-29T04:10:32.388Z,38.90
2018-12-29T04:12:58.612Z,39.10
2018-12-29T04:15:24.799Z,39.10
2018-12-29T04:17:51.310Z,39.20
2018-12-29T04:20:17.492Z,39.20
2018-12-29T04:22:45.404Z,39.20
2018-12-29T04:25:11.601Z,39.20
2018-12-29T04:27:37.811Z,39.20
2018-12-29T04:30:04.003Z,39.30
2018-12-29T04:32:30.203Z,39.30
2018-12-29T04:34:57.160Z,39.20
2018-12-29T04:37:23.352Z,39.10
2018-12-29T04:39:49.539Z,39.20
2018-12-29T04:42:15.720Z,39.30
2018-12-29T04:44:43.413Z,40.00
2018-12-29T04:47:09.604Z,39.30
2018-12-29T04:49:36.609Z,39.40
2018-12-29T04:52:02.809Z,39.40
2018-12-29T04:54:29.047Z,39.30
2018-12-29T04:56:55.240Z,39.20
2018-12-29T04:59:21.440Z,39.10
2018-12-29T05:01:47.988Z,39.20
2018-12-29T05:04:14.196Z,39.10
2018-12-29T05:06:40.386Z,39.10
2018-12-29T05:09:06.566Z,39.00
2018-12-29T05:11:32.739Z,39.20
2018-12-29T05:13:58.920Z,39.40
2018-12-29T05:16:25.291Z,39.50
2018-12-29T05:18:51.474Z,39.40
2018-12-29T05:21:17.659Z,39.70
2018-12-29T05:23:43.864Z,39.70
2018-12-29T05:26:10.823Z,39.60
2018-12-29T05:28:37.008Z,39.60
2018-12-29T05:31:03.213Z,39.50
2018-12-29T05:33:29.400Z,39.60
2018-12-29T05:35:55.599Z,39.60
2018-12-29T05:38:21.774Z,39.70
2018-12-29T05:40:48.016Z,40.20
2018-12-29T05:43:14.232Z,39.80
2018-12-29T05:45:40.447Z,40.00
2018-12-29T05:48:06.643Z,39.90
2018-12-29T05:50:32.851Z,39.90
2018-12-29T05:52:59.120Z,39.80
2018-12-29T05:55:25.323Z,39.80
2018-12-29T05:57:51.575Z,39.70
2018-12-29T06:00:17.790Z,40.00
2018-12-29T06:02:43.951Z,39.90
2018-12-29T06:05:10.154Z,39.80
2018-12-29T06:07:37.118Z,39.80
2018-12-29T06:10:03.315Z,39.70
2018-12-29T06:12:29.505Z,39.80
2018-12-29T06:14:55.715Z,39.80
2018-12-29T06:17:21.909Z,39.80
2018-12-29T06:19:49.059Z,39.90
2018-12-29T06:22:15.250Z,39.90
2018-12-29T06:24:41.461Z,39.90
2018-12-29T06:27:07.667Z,39.80
2018-12-29T06:29:33.945Z,40.00
2018-12-29T06:32:00.143Z,40.20
2018-12-29T06:34:26.343Z,40.40
2018-12-29T06:36:52.554Z,40.30
2018-12-29T06:39:18.883Z,40.10
2018-12-29T06:41:45.075Z,40.10
2018-12-29T06:44:11.304Z,40.00
2018-12-29T06:46:37.525Z,39.90
2018-12-29T06:49:03.733Z,39.90
2018-12-29T06:51:29.995Z,40.10
2018-12-29T06:53:56.201Z,40.30
2018-12-29T06:56:22.400Z,40.80
2018-12-29T06:58:48.644Z,40.10
2018-12-29T07:01:15.755Z,40.10
2018-12-29T07:03:41.973Z,40.20
2018-12-29T07:06:08.190Z,40.20
2018-12-29T07:08:34.396Z,40.30
2018-12-29T07:11:02.087Z,40.30
2018-12-29T07:13:28.284Z,40.20
2018-12-29T07:15:54.481Z,40.30
2018-12-29T07:18:20.685Z,40.50
2018-12-29T07:20:46.967Z,40.50
2018-12-29T07:23:13.170Z,40.70
2018-12-29T07:25:39.368Z,40.80
2018-12-29T07:28:05.553Z,40.50
2018-12-29T07:30:31.864Z,40.60
2018-12-29T07:32:58.057Z,40.60
2018-12-29T07:35:24.623Z,40.60
2018-12-29T07:37:50.828Z,40.60
2018-12-29T07:40:17.029Z,40.60
2018-12-29T07:42:43.209Z,40.60
2018-12-29T07:45:09.446Z,40.70
2018-12-29T07:47:35.638Z,40.70
2018-12-29T07:50:01.956Z,40.80
2018-12-29T07:52:28.160Z,40.80
2018-12-29T07:54:54.387Z,40.90
2018-12-29T07:57:20.582Z,40.80
2018-12-29T07:59:46.867Z,41.20
2018-12-29T08:02:13.047Z,41.20
2018-12-29T08:04:39.237Z,41.30
2018-12-29T08:07:05.428Z,41.20
2018-12-29T08:09:32.378Z,41.30
2018-12-29T08:11:58.603Z,41.30
2018-12-29T08:14:24.812Z,41.30
2018-12-29T08:16:56.841Z,41.20
2018-12-29T08:19:17.255Z,41.40
2018-12-29T08:21:43.440Z,41.40
2018-12-29T08:24:09.625Z,41.40
2018-12-29T08:26:35.844Z,41.30
2018-12-29T08:29:02.070Z,41.50
2018-12-29T08:31:28.274Z,41.70
2018-12-29T08:33:54.468Z,41.50
2018-12-29T08:36:20.669Z,41.50
2018-12-29T08:38:47.689Z,41.50
2018-12-29T08:41:13.888Z,41.50
2018-12-29T08:43:40.071Z,41.30
2018-12-29T08:46:06.263Z,41.40
2018-12-29T08:48:32.474Z,41.60
2018-12-29T08:50:58.675Z,41.70
2018-12-29T08:53:24.882Z,41.80
2018-12-29T08:55:51.056Z,41.80
2018-12-29T08:58:17.271Z,41.70
2018-12-29T09:00:43.474Z,41.70
2018-12-29T09:03:10.433Z,41.90
2018-12-29T09:05:36.630Z,41.90
2018-12-29T09:08:03.598Z,41.90
2018-12-29T09:10:30.539Z,42.10
2018-12-29T09:12:56.764Z,42.00
2018-12-29T09:15:23.210Z,42.10
2018-12-29T09:17:49.377Z,42.10
2018-12-29T09:20:15.568Z,42.00
2018-12-29T09:22:41.779Z,41.90
2018-12-29T09:25:07.996Z,42.00
2018-12-29T09:27:34.171Z,41.90
2018-12-29T09:30:00.379Z,42.00
2018-12-29T09:32:26.807Z,41.80
2018-12-29T09:34:53.029Z,41.90
2018-12-29T09:37:19.217Z,42.00
2018-12-29T09:39:45.425Z,42.20
2018-12-29T09:42:11.600Z,42.20
2018-12-29T09:44:38.568Z,42.30
2018-12-29T09:47:04.742Z,42.20
2018-12-29T09:49:30.945Z,42.40
2018-12-29T09:51:57.322Z,42.20
2018-12-29T09:54:23.406Z,42.60
2018-12-29T09:56:49.596Z,42.60
2018-12-29T09:59:16.551Z,42.50
2018-12-29T10:01:42.745Z,42.40
2018-12-29T10:04:08.968Z,42.50
2018-12-29T10:06:36.698Z,42.50
2018-12-29T10:09:03.093Z,42.50
2018-12-29T10:11:29.300Z,42.50
2018-12-29T10:13:55.518Z,42.30
2018-12-29T10:16:21.738Z,42.30
2018-12-29T10:18:49.449Z,42.70
2018-12-29T10:21:15.696Z,42.70
2018-12-29T10:23:41.871Z,42.90
2018-12-29T10:26:08.079Z,42.80
2018-12-29T10:28:34.266Z,42.80
2018-12-29T10:31:00.459Z,42.90
2018-12-29T10:33:27.429Z,43.00
2018-12-29T10:35:53.655Z,43.00
2018-12-29T10:38:19.847Z,42.90
2018-12-29T10:40:47.547Z,43.20
2018-12-29T10:43:13.778Z,43.20
2018-12-29T10:45:39.993Z,43.40
2018-12-29T10:48:06.179Z,43.20
2018-12-29T10:50:32.387Z,43.30
2018-12-29T10:52:58.590Z,43.30
2018-12-29T10:55:24.831Z,43.30
2018-12-29T10:57:51.015Z,43.50
2018-12-29T11:00:17.993Z,43.90
2018-12-29T11:02:44.196Z,43.80
2018-12-29T11:05:10.432Z,43.90
2018-12-29T11:07:36.655Z,43.80
2018-12-29T11:10:02.853Z,43.90
2018-12-29T11:12:29.052Z,43.90
2018-12-29T11:14:55.284Z,43.70
2018-12-29T11:17:21.583Z,43.70
2018-12-29T11:19:47.768Z,43.80
2018-12-29T11:22:15.507Z,43.80
2018-12-29T11:24:41.693Z,43.90
2018-12-29T11:27:07.918Z,43.70
2018-12-29T11:29:34.105Z,43.80
2018-12-29T11:32:00.329Z,43.80
2018-12-29T11:34:26.547Z,43.80
2018-12-29T11:36:52.775Z,43.90
2018-12-29T11:39:18.960Z,44.10
2018-12-29T11:41:45.166Z,44.60
2018-12-29T11:44:12.107Z,44.40
2018-12-29T11:46:38.279Z,44.00
2018-12-29T11:49:04.496Z,44.20
2018-12-29T11:51:30.707Z,44.20
2018-12-29T11:53:56.942Z,44.20
2018-12-29T11:56:23.226Z,44.40
2018-12-29T11:58:49.432Z,44.50
2018-12-29T12:01:15.706Z,44.40
2018-12-29T12:03:41.953Z,44.40
2018-12-29T12:06:08.159Z,44.30
2018-12-29T12:08:34.376Z,44.40
2018-12-29T12:11:00.580Z,44.30
2018-12-29T12:13:26.778Z,44.20
2018-12-29T12:15:52.979Z,44.30
2018-12-29T12:18:19.958Z,44.40
2018-12-29T12:20:46.152Z,44.40
2018-12-29T12:23:12.358Z,44.60
2018-12-29T12:25:38.576Z,44.70
2018-12-29T12:28:04.809Z,44.90
2018-12-29T12:30:31.020Z,45.00
2018-12-29T12:32:57.220Z,45.00
2018-12-29T12:35:23.448Z,44.80
2018-12-29T12:37:49.658Z,44.70
2018-12-29T12:40:15.910Z,44.80
2018-12-29T12:42:42.116Z,44.60
2018-12-29T12:45:08.311Z,44.50
2018-12-29T12:47:35.284Z,44.40
2018-12-29T12:50:01.523Z,44.30
2018-12-29T12:52:27.784Z,44.30
2018-12-29T12:54:54.008Z,44.30
2018-12-29T12:57:20.962Z,44.40
2018-12-29T12:59:47.230Z,44.30
2018-12-29T13:02:13.428Z,44.20
2018-12-29T13:04:39.659Z,44.20
2018-12-29T13:07:05.861Z,44.10
2018-12-29T13:09:32.109Z,44.10
2018-12-29T13:11:58.318Z,44.10
2018-12-29T13:14:24.514Z,43.80
2018-12-29T13:16:50.740Z,43.80
2018-12-29T13:19:17.896Z,43.80
2018-12-29T13:21:44.332Z,43.90
2018-12-29T13:24:10.973Z,43.60
2018-12-29T13:26:37.171Z,43.70
2018-12-29T13:29:03.356Z,43.50
2018-12-29T13:31:29.583Z,43.60
2018-12-29T13:33:55.867Z,43.60
2018-12-29T13:36:22.084Z,43.50
2018-12-29T13:38:48.280Z,43.50
2018-12-29T13:41:15.273Z,43.60
2018-12-29T13:43:41.605Z,43.50
2018-12-29T13:46:07.844Z,43.60
2018-12-29T13:48:34.076Z,43.70
2018-12-29T13:51:00.289Z,43.50
2018-12-29T13:53:27.379Z,43.60
2018-12-29T13:55:53.584Z,43.40
2018-12-29T13:58:19.813Z,43.50
2018-12-29T14:00:46.004Z,43.50
2018-12-29T14:03:12.220Z,43.30
2018-12-29T14:05:38.416Z,43.50
2018-12-29T14:08:04.624Z,43.50
2018-12-29T14:10:30.802Z,43.70
2018-12-29T14:12:57.783Z,43.40
2018-12-29T14:15:23.968Z,43.30
2018-12-29T14:17:50.234Z,43.40
2018-12-29T14:20:16.424Z,43.40
2018-12-29T14:22:43.371Z,43.30
2018-12-29T14:25:09.578Z,43.30
2018-12-29T14:27:35.796Z,43.40
2018-12-29T14:30:01.980Z,43.40
2018-12-29T14:32:28.176Z,43.30
2018-12-29T14:34:54.387Z,43.40
2018-12-29T14:37:20.596Z,43.40
2018-12-29T14:39:46.820Z,43.30
2018-12-29T14:42:13.015Z,43.30
2018-12-29T14:44:39.206Z,43.40
2018-12-29T14:47:05.389Z,43.30
2018-12-29T14:49:31.650Z,43.20
2018-12-29T14:51:58.445Z,43.30
2018-12-29T14:54:24.704Z,43.30
2018-12-29T14:56:50.906Z,43.30
2018-12-29T14:59:17.131Z,43.20
2018-12-29T15:01:43.368Z,43.10
2018-12-29T15:04:09.573Z,43.20
2018-12-29T15:06:35.779Z,43.10
2018-12-29T15:09:02.744Z,43.20
2018-12-29T15:11:29.729Z,43.20
2018-12-29T15:13:55.925Z,43.10
2018-12-29T15:16:22.174Z,43.20
2018-12-29T15:18:48.372Z,43.30
2018-12-29T15:21:14.633Z,43.30
2018-12-29T15:23:41.654Z,43.30
2018-12-29T15:26:07.913Z,43.30
2018-12-29T15:28:34.334Z,43.30
2018-12-29T15:31:00.566Z,43.30
2018-12-29T15:33:26.800Z,43.20
2018-12-29T15:35:53.018Z,43.30
2018-12-29T15:38:19.223Z,43.30
2018-12-29T15:40:45.475Z,43.20
2018-12-29T15:43:12.427Z,43.30
2018-12-29T15:45:38.652Z,43.30
2018-12-29T15:48:04.853Z,43.30
2018-12-29T15:50:31.039Z,43.40
2018-12-29T15:52:58.062Z,43.50
2018-12-29T15:55:24.312Z,43.50
2018-12-29T15:57:50.541Z,43.40
2018-12-29T16:00:16.761Z,43.10
2018-12-29T16:02:42.961Z,43.30
2018-12-29T16:05:09.170Z,43.30
2018-12-29T16:07:35.413Z,43.30
2018-12-29T16:10:01.618Z,43.20
2018-12-29T16:12:27.852Z,43.30
2018-12-29T16:14:54.073Z,43.20
2018-12-29T16:17:20.297Z,43.10
2018-12-29T16:19:46.551Z,43.10
2018-12-29T16:22:12.752Z,43.10
2018-12-29T16:24:38.963Z,43.00
2018-12-29T16:27:05.209Z,43.00
2018-12-29T16:29:31.415Z,43.10
2018-12-29T16:31:57.655Z,43.10
2018-12-29T16:34:23.854Z,43.00
2018-12-29T16:36:51.347Z,43.00
2018-12-29T16:39:17.521Z,43.10
2018-12-29T16:41:43.844Z,43.20
2018-12-29T16:44:10.071Z,43.20
2018-12-29T16:46:36.294Z,43.20
2018-12-29T16:49:06.718Z,43.10
2018-12-29T16:51:28.824Z,43.10
2018-12-29T16:53:56.215Z,43.30
2018-12-29T16:56:22.388Z,43.20
2018-12-29T16:58:50.311Z,43.10
2018-12-29T17:01:16.519Z,43.10
2018-12-29T17:03:42.766Z,42.90
2018-12-29T17:06:09.031Z,42.60
2018-12-29T17:08:35.242Z,43.20
2018-12-29T17:11:01.435Z,42.80
2018-12-29T17:13:27.652Z,42.90
2018-12-29T17:15:53.883Z,42.80
2018-12-29T17:18:20.088Z,43.10
2018-12-29T17:20:46.307Z,43.30
2018-12-29T17:23:12.798Z,43.50
2018-12-29T17:25:39.050Z,43.80
2018-12-29T17:28:05.245Z,43.90
2018-12-29T17:30:31.502Z,43.80
2018-12-29T17:32:57.715Z,44.10
2018-12-29T17:35:23.981Z,44.30
2018-12-29T17:37:51.011Z,44.50
2018-12-29T17:40:17.240Z,44.50
2018-12-29T17:42:43.441Z,44.70
2018-12-29T17:45:09.719Z,44.90
2018-12-29T17:47:36.103Z,45.00
2018-12-29T17:50:02.323Z,44.80
2018-12-29T17:52:28.563Z,44.90
2018-12-29T17:54:54.794Z,44.90
2018-12-29T17:57:20.989Z,45.30
2018-12-29T17:59:47.196Z,45.30
2018-12-29T18:02:13.482Z,45.00
2018-12-29T18:04:39.688Z,44.90
2018-12-29T18:07:05.905Z,45.00
2018-12-29T18:09:32.362Z,45.50
2018-12-29T18:11:58.626Z,46.20
2018-12-29T18:14:24.877Z,45.70
2018-12-29T18:16:52.070Z,45.80
2018-12-29T18:19:18.344Z,46.40
2018-12-29T18:21:44.571Z,46.10
2018-12-29T18:24:10.780Z,46.10
2018-12-29T18:26:37.040Z,46.10
2018-12-29T18:29:03.417Z,46.20
2018-12-29T18:31:29.619Z,46.20
2018-12-29T18:33:55.844Z,46.30
2018-12-29T18:36:22.304Z,46.50
2018-12-29T18:38:48.529Z,46.60
2018-12-29T18:41:14.762Z,46.70
2018-12-29T18:43:41.203Z,46.80
2018-12-29T18:46:07.432Z,46.80
2018-12-29T18:48:33.641Z,46.90
2018-12-29T18:50:59.886Z,46.80
2018-12-29T18:53:26.105Z,46.70
2018-12-29T18:55:52.303Z,46.50
2018-12-29T18:58:18.523Z,46.60
2018-12-29T19:00:44.739Z,46.50
2018-12-29T19:03:10.988Z,46.60
2018-12-29T19:05:37.197Z,46.50
2018-12-29T19:08:03.394Z,46.60
2018-12-29T19:10:29.638Z,47.00
2018-12-29T19:12:55.875Z,47.00
2018-12-29T19:15:22.127Z,47.10
2018-12-29T19:17:48.364Z,47.90
2018-12-29T19:20:14.615Z,47.30
2018-12-29T19:22:40.817Z,47.50
2018-12-29T19:25:07.037Z,47.60
2018-12-29T19:27:33.285Z,47.80
2018-12-29T19:29:59.488Z,47.80
2018-12-29T19:32:25.683Z,48.10
2018-12-29T19:34:51.944Z,47.90
2018-12-29T19:37:18.161Z,47.60
2018-12-29T19:39:44.395Z,47.50
2018-12-29T19:42:10.621Z,47.60
2018-12-29T19:44:36.846Z,47.90
2018-12-29T19:47:03.087Z,47.80
2018-12-29T19:49:29.326Z,47.90
2018-12-29T19:51:55.543Z,48.10
2018-12-29T19:54:21.812Z,48.00
2018-12-29T19:56:48.055Z,48.10
2018-12-29T19:59:14.307Z,47.70
2018-12-29T20:01:40.555Z,47.80
2018-12-29T20:04:06.865Z,48.00
2018-12-29T20:06:33.057Z,48.10
2018-12-29T20:08:59.258Z,48.50
2018-12-29T20:11:26.244Z,48.30
2018-12-29T20:13:52.443Z,48.30
2018-12-29T20:16:18.629Z,48.40
2018-12-29T20:18:44.848Z,48.80
2018-12-29T20:21:11.093Z,48.60
2018-12-29T20:23:38.075Z,48.70
2018-12-29T20:26:04.291Z,48.20
2018-12-29T20:28:30.509Z,48.50
2018-12-29T20:30:57.500Z,49.10
2018-12-29T20:33:23.744Z,49.00
2018-12-29T20:35:49.962Z,48.70
2018-12-29T20:38:16.201Z,49.60
2018-12-29T20:40:42.428Z,49.10
2018-12-29T20:43:08.828Z,49.40
2018-12-29T20:45:35.067Z,49.50
2018-12-29T20:48:01.324Z,49.60
2018-12-29T20:50:28.084Z,49.40
2018-12-29T20:52:54.299Z,49.60
2018-12-29T20:55:20.511Z,49.40
2018-12-29T20:57:46.747Z,49.40
2018-12-29T21:00:12.950Z,49.40
2018-12-29T21:02:39.166Z,49.30
2018-12-29T21:05:05.426Z,49.20
2018-12-29T21:07:31.679Z,49.30
2018-12-29T21:09:57.887Z,49.20
2018-12-29T21:12:24.099Z,49.10
2018-12-29T21:14:50.338Z,49.10
2018-12-29T21:17:18.699Z,49.10
2018-12-29T21:19:44.956Z,49.10
2018-12-29T21:22:11.967Z,49.30
2018-12-29T21:24:38.260Z,49.20
2018-12-29T21:27:05.219Z,49.20
2018-12-29T21:29:31.448Z,49.10
2018-12-29T21:31:57.689Z,49.10
2018-12-29T21:34:23.946Z,49.00
2018-12-29T21:36:51.170Z,48.90
2018-12-29T21:39:17.431Z,48.80
2018-12-29T21:41:43.658Z,48.60
2018-12-29T21:44:09.887Z,48.40
2018-12-29T21:46:36.103Z,48.20
2018-12-29T21:49:02.316Z,48.20
2018-12-29T21:51:28.518Z,48.20
2018-12-29T21:53:54.753Z,48.00
2018-12-29T21:56:20.971Z,47.80
2018-12-29T21:58:47.198Z,47.80
2018-12-29T22:01:13.404Z,47.70
2018-12-29T22:03:39.627Z,47.70
2018-12-29T22:06:05.884Z,47.70
2018-12-29T22:08:32.108Z,47.40
2018-12-29T22:10:58.338Z,47.60
2018-12-29T22:13:24.591Z,47.60
2018-12-29T22:15:51.467Z,47.30
2018-12-29T22:18:17.674Z,47.40
2018-12-29T22:20:43.900Z,47.20
2018-12-29T22:23:10.099Z,47.40
2018-12-29T22:25:36.328Z,47.30
2018-12-29T22:28:02.554Z,47.30
2018-12-29T22:30:28.804Z,47.30
2018-12-29T22:32:54.993Z,47.30
2018-12-29T22:35:21.196Z,47.20
2018-12-29T22:37:48.918Z,47.10
2018-12-29T22:40:15.135Z,47.00
2018-12-29T22:42:41.375Z,46.90
2018-12-29T22:45:07.654Z,46.90
2018-12-29T22:47:33.895Z,46.90
2018-12-29T22:50:00.978Z,46.70
2018-12-29T22:52:27.284Z,46.70
2018-12-29T22:54:53.541Z,46.60
2018-12-29T22:57:19.761Z,46.70
2018-12-29T22:59:45.977Z,46.80
2018-12-29T23:02:12.963Z,46.90
2018-12-29T23:04:39.242Z,46.90
2018-12-29T23:07:05.476Z,46.80
2018-12-29T23:09:31.699Z,46.60
2018-12-29T23:11:57.919Z,46.60
2018-12-29T23:14:24.159Z,46.60
2018-12-29T23:16:50.419Z,46.50
2018-12-29T23:19:16.647Z,46.50
2018-12-29T23:21:42.856Z,46.60
2018-12-29T23:24:09.124Z,46.60
2018-12-29T23:26:35.341Z,46.70
2018-12-29T23:29:01.579Z,46.70
2018-12-29T23:31:27.818Z,46.80
2018-12-29T23:33:54.029Z,46.80
2018-12-29T23:36:20.272Z,46.80
2018-12-29T23:38:46.483Z,46.70
2018-12-29T23:41:12.730Z,46.70
2018-12-29T23:43:40.018Z,46.50
2018-12-29T23:46:06.181Z,46.50
2018-12-29T23:48:32.438Z,46.60
2018-12-29T23:51:05.651Z,46.60
2018-12-29T23:53:24.923Z,46.40
2018-12-29T23:55:51.172Z,46.30
2018-12-29T23:58:17.408Z,46.30
